sensor_id;sensor_type;location;lat;lon;timestamp;pressure;altitude;pressure_sealevel;temperature;humidity
10881;BME280;5493;48.884;8.338;2023-05-23T00:00:54;100059.72;;;20.08;100.00
10881;BME280;5493;48.884;8.338;2023-05-23T00:03:22;100052.53;;;20.17;100.00
10881;BME280;5493;48.884;8.338;2023-05-23T00:05:49;100053.88;;;20.48;100.00
10881;BME280;5493;48.884;8.338;2023-05-23T00:08:16;100051.47;;;20.42;100.00
10881;BME280;5493;48.884;8.338;2023-05-23T00:10:43;100041.47;;;20.56;100.00
10881;BME280;5493;48.884;8.338;2023-05-23T00:13:11;100046.78;;;20.71;100.00
10881;BME280;5493;48.884;8.338;2023-05-23T00:15:38;100044.38;;;20.65;100.00
10881;BME280;5493;48.884;8.338;2023-05-23T00:18:06;100054.59;;;20.83;100.00
10881;BME280;5493;48.884;8.338;2023-05-23T00:20:35;100051.03;;;20.82;100.00
10881;BME280;5493;48.884;8.338;2023-05-23T00:23:03;100053.78;;;20.30;100.00
10881;BME280;5493;48.884;8.338;2023-05-23T00:25:29;100052.72;;;20.54;100.00
10881;BME280;5493;48.884;8.338;2023-05-23T00:27:58;100054.06;;;20.57;100.00
10881;BME280;5493;48.884;8.338;2023-05-23T00:30:26;100062.19;;;20.62;100.00
10881;BME280;5493;48.884;8.338;2023-05-23T00:32:52;100062.47;;;20.37;100.00
10881;BME280;5493;48.884;8.338;2023-05-23T00:35:19;100062.34;;;20.76;100.00
10881;BME280;5493;48.884;8.338;2023-05-23T00:37:46;100059.84;;;20.79;100.00
10881;BME280;5493;48.884;8.338;2023-05-23T00:40:14;100058.94;;;20.60;100.00
10881;BME280;5493;48.884;8.338;2023-05-23T00:42:40;100062.31;;;20.28;100.00
10881;BME280;5493;48.884;8.338;2023-05-23T00:45:08;100055.25;;;20.17;100.00
10881;BME280;5493;48.884;8.338;2023-05-23T00:47:38;100058.13;;;20.36;100.00
10881;BME280;5493;48.884;8.338;2023-05-23T00:50:06;100058.53;;;20.48;100.00
10881;BME280;5493;48.884;8.338;2023-05-23T00:52:33;100062.88;;;20.54;100.00
10881;BME280;5493;48.884;8.338;2023-05-23T00:55:00;100059.66;;;20.71;100.00
10881;BME280;5493;48.884;8.338;2023-05-23T00:57:26;100065.66;;;20.73;100.00
10881;BME280;5493;48.884;8.338;2023-05-23T00:59:53;100073.81;;;20.54;100.00
10881;BME280;5493;48.884;8.338;2023-05-23T01:02:20;100075.53;;;20.45;100.00
10881;BME280;5493;48.884;8.338;2023-05-23T01:04:48;100081.78;;;20.22;100.00
10881;BME280;5493;48.884;8.338;2023-05-23T01:07:18;100086.63;;;20.30;100.00
10881;BME280;5493;48.884;8.338;2023-05-23T01:09:45;100084.94;;;20.39;100.00
10881;BME280;5493;48.884;8.338;2023-05-23T01:12:17;100083.84;;;20.40;100.00
10881;BME280;5493;48.884;8.338;2023-05-23T01:14:50;100076.13;;;20.42;100.00
10881;BME280;5493;48.884;8.338;2023-05-23T01:17:22;100082.78;;;20.36;100.00
10881;BME280;5493;48.884;8.338;2023-05-23T01:20:01;100071.84;;;20.31;100.00
10881;BME280;5493;48.884;8.338;2023-05-23T01:22:53;100075.78;;;20.48;100.00
10881;BME280;5493;48.884;8.338;2023-05-23T01:25:31;100074.56;;;20.59;100.00
10881;BME280;5493;48.884;8.338;2023-05-23T01:28:06;100070.47;;;20.81;100.00
10881;BME280;5493;48.884;8.338;2023-05-23T01:30:39;100062.50;;;20.84;100.00
10881;BME280;5493;48.884;8.338;2023-05-23T01:33:07;100062.81;;;20.83;100.00
10881;BME280;5493;48.884;8.338;2023-05-23T01:35:34;100064.41;;;20.84;100.00
10881;BME280;5493;48.884;8.338;2023-05-23T01:38:01;100071.91;;;20.78;100.00
10881;BME280;5493;48.884;8.338;2023-05-23T01:40:28;100069.38;;;20.82;100.00
10881;BME280;5493;48.884;8.338;2023-05-23T01:42:55;100067.88;;;20.71;100.00
10881;BME280;5493;48.884;8.338;2023-05-23T01:45:25;100072.22;;;20.95;100.00
10881;BME280;5493;48.884;8.338;2023-05-23T01:47:52;100075.19;;;20.99;100.00
10881;BME280;5493;48.884;8.338;2023-05-23T01:50:19;100077.31;;;20.83;100.00
10881;BME280;5493;48.884;8.338;2023-05-23T01:52:46;100079.34;;;20.49;100.00
10881;BME280;5493;48.884;8.338;2023-05-23T01:55:16;100090.09;;;20.69;100.00
10881;BME280;5493;48.884;8.338;2023-05-23T01:57:49;100088.09;;;20.75;100.00
10881;BME280;5493;48.884;8.338;2023-05-23T02:00:16;100087.25;;;20.79;100.00
10881;BME280;5493;48.884;8.338;2023-05-23T02:02:44;100085.00;;;20.81;100.00
10881;BME280;5493;48.884;8.338;2023-05-23T02:05:11;100079.03;;;20.79;100.00
10881;BME280;5493;48.884;8.338;2023-05-23T02:07:37;100090.03;;;20.74;100.00
10881;BME280;5493;48.884;8.338;2023-05-23T02:10:07;100095.91;;;20.86;100.00
10881;BME280;5493;48.884;8.338;2023-05-23T02:12:34;100100.22;;;20.92;100.00
10881;BME280;5493;48.884;8.338;2023-05-23T02:15:01;100101.31;;;20.91;100.00
10881;BME280;5493;48.884;8.338;2023-05-23T02:17:27;100094.16;;;20.72;100.00
10881;BME280;5493;48.884;8.338;2023-05-23T02:19:56;100095.91;;;20.62;100.00
10881;BME280;5493;48.884;8.338;2023-05-23T02:22:23;100095.81;;;20.44;100.00
10881;BME280;5493;48.884;8.338;2023-05-23T02:24:49;100094.09;;;20.53;100.00
10881;BME280;5493;48.884;8.338;2023-05-23T02:27:16;100094.56;;;20.60;100.00
10881;BME280;5493;48.884;8.338;2023-05-23T02:29:43;100093.16;;;20.62;100.00
10881;BME280;5493;48.884;8.338;2023-05-23T02:32:09;100097.53;;;20.63;100.00
10881;BME280;5493;48.884;8.338;2023-05-23T02:34:36;100094.22;;;20.67;100.00
10881;BME280;5493;48.884;8.338;2023-05-23T02:37:04;100095.81;;;20.73;100.00
10881;BME280;5493;48.884;8.338;2023-05-23T02:39:31;100096.13;;;20.66;100.00
10881;BME280;5493;48.884;8.338;2023-05-23T02:41:57;100104.72;;;20.83;100.00
10881;BME280;5493;48.884;8.338;2023-05-23T02:44:24;100108.22;;;20.89;100.00
10881;BME280;5493;48.884;8.338;2023-05-23T02:46:51;100108.84;;;20.81;100.00
10881;BME280;5493;48.884;8.338;2023-05-23T02:49:17;100111.78;;;20.89;100.00
10881;BME280;5493;48.884;8.338;2023-05-23T02:51:44;100116.22;;;20.85;100.00
10881;BME280;5493;48.884;8.338;2023-05-23T02:54:12;100113.13;;;20.92;100.00
10881;BME280;5493;48.884;8.338;2023-05-23T02:56:38;100109.97;;;20.80;100.00
10881;BME280;5493;48.884;8.338;2023-05-23T02:59:05;100104.25;;;20.76;100.00
10881;BME280;5493;48.884;8.338;2023-05-23T03:01:31;100109.44;;;20.78;100.00
10881;BME280;5493;48.884;8.338;2023-05-23T03:03:58;100118.00;;;20.95;100.00
10881;BME280;5493;48.884;8.338;2023-05-23T03:06:24;100109.09;;;20.84;100.00
10881;BME280;5493;48.884;8.338;2023-05-23T03:08:51;100113.97;;;20.87;100.00
10881;BME280;5493;48.884;8.338;2023-05-23T03:11:19;100108.72;;;20.91;100.00
10881;BME280;5493;48.884;8.338;2023-05-23T03:13:46;100116.09;;;20.95;100.00
10881;BME280;5493;48.884;8.338;2023-05-23T03:16:13;100109.63;;;20.86;100.00
10881;BME280;5493;48.884;8.338;2023-05-23T03:18:40;100114.56;;;20.84;100.00
10881;BME280;5493;48.884;8.338;2023-05-23T03:21:06;100115.63;;;20.88;100.00
10881;BME280;5493;48.884;8.338;2023-05-23T03:23:33;100118.78;;;21.00;100.00
10881;BME280;5493;48.884;8.338;2023-05-23T03:26:00;100113.28;;;20.77;100.00
10881;BME280;5493;48.884;8.338;2023-05-23T03:28:29;100121.84;;;20.70;100.00
10881;BME280;5493;48.884;8.338;2023-05-23T03:30:56;100121.81;;;20.75;100.00
10881;BME280;5493;48.884;8.338;2023-05-23T03:33:22;100127.22;;;20.80;100.00
10881;BME280;5493;48.884;8.338;2023-05-23T03:35:49;100126.34;;;20.85;100.00
10881;BME280;5493;48.884;8.338;2023-05-23T03:38:17;100135.34;;;20.90;100.00
10881;BME280;5493;48.884;8.338;2023-05-23T03:40:43;100127.06;;;20.72;100.00
10881;BME280;5493;48.884;8.338;2023-05-23T03:43:10;100128.34;;;20.79;100.00
10881;BME280;5493;48.884;8.338;2023-05-23T03:45:38;100128.94;;;20.76;100.00
10881;BME280;5493;48.884;8.338;2023-05-23T03:48:04;100131.78;;;20.90;100.00
10881;BME280;5493;48.884;8.338;2023-05-23T03:50:31;100130.53;;;20.77;100.00
10881;BME280;5493;48.884;8.338;2023-05-23T03:52:57;100143.56;;;20.90;100.00
10881;BME280;5493;48.884;8.338;2023-05-23T03:55:24;100145.72;;;20.93;100.00
10881;BME280;5493;48.884;8.338;2023-05-23T03:57:51;100144.59;;;20.71;100.00
10881;BME280;5493;48.884;8.338;2023-05-23T04:00:18;100139.94;;;20.71;100.00
10881;BME280;5493;48.884;8.338;2023-05-23T04:02:45;100144.19;;;20.82;100.00
10881;BME280;5493;48.884;8.338;2023-05-23T04:05:12;100142.94;;;20.70;100.00
10881;BME280;5493;48.884;8.338;2023-05-23T04:07:39;100147.56;;;20.74;100.00
10881;BME280;5493;48.884;8.338;2023-05-23T04:10:07;100148.75;;;20.92;100.00
10881;BME280;5493;48.884;8.338;2023-05-23T04:12:34;100155.75;;;20.79;100.00
10881;BME280;5493;48.884;8.338;2023-05-23T04:15:00;100154.78;;;20.65;100.00
10881;BME280;5493;48.884;8.338;2023-05-23T04:17:28;100159.59;;;20.49;100.00
10881;BME280;5493;48.884;8.338;2023-05-23T04:19:57;100162.22;;;20.59;100.00
10881;BME280;5493;48.884;8.338;2023-05-23T04:22:23;100153.03;;;20.74;100.00
10881;BME280;5493;48.884;8.338;2023-05-23T04:24:50;100167.91;;;20.68;100.00
10881;BME280;5493;48.884;8.338;2023-05-23T04:27:16;100157.53;;;20.65;100.00
10881;BME280;5493;48.884;8.338;2023-05-23T04:29:44;100164.00;;;20.45;100.00
10881;BME280;5493;48.884;8.338;2023-05-23T04:32:11;100166.06;;;20.58;100.00
10881;BME280;5493;48.884;8.338;2023-05-23T04:34:37;100163.91;;;20.55;100.00
10881;BME280;5493;48.884;8.338;2023-05-23T04:37:06;100163.53;;;20.38;100.00
10881;BME280;5493;48.884;8.338;2023-05-23T04:39:33;100164.16;;;20.59;100.00
10881;BME280;5493;48.884;8.338;2023-05-23T04:41:59;100176.28;;;20.53;100.00
10881;BME280;5493;48.884;8.338;2023-05-23T04:44:26;100171.88;;;20.18;100.00
10881;BME280;5493;48.884;8.338;2023-05-23T04:46:54;100174.75;;;20.37;100.00
10881;BME280;5493;48.884;8.338;2023-05-23T04:49:21;100185.34;;;20.14;100.00
10881;BME280;5493;48.884;8.338;2023-05-23T04:51:48;100189.59;;;19.87;100.00
10881;BME280;5493;48.884;8.338;2023-05-23T04:54:16;100193.53;;;20.14;100.00
10881;BME280;5493;48.884;8.338;2023-05-23T04:56:43;100189.66;;;20.21;100.00
10881;BME280;5493;48.884;8.338;2023-05-23T04:59:09;100198.38;;;20.23;100.00
10881;BME280;5493;48.884;8.338;2023-05-23T05:01:37;100198.94;;;20.25;100.00
10881;BME280;5493;48.884;8.338;2023-05-23T05:04:04;100200.84;;;20.24;100.00
10881;BME280;5493;48.884;8.338;2023-05-23T05:06:31;100202.31;;;20.11;100.00
10881;BME280;5493;48.884;8.338;2023-05-23T05:08:57;100205.09;;;20.06;100.00
10881;BME280;5493;48.884;8.338;2023-05-23T05:11:26;100194.34;;;20.15;100.00
10881;BME280;5493;48.884;8.338;2023-05-23T05:13:52;100195.31;;;20.34;100.00
10881;BME280;5493;48.884;8.338;2023-05-23T05:16:19;100188.78;;;20.64;100.00
10881;BME280;5493;48.884;8.338;2023-05-23T05:18:45;100199.19;;;20.62;100.00
10881;BME280;5493;48.884;8.338;2023-05-23T05:21:12;100192.69;;;20.58;100.00
10881;BME280;5493;48.884;8.338;2023-05-23T05:23:38;100194.41;;;20.44;100.00
10881;BME280;5493;48.884;8.338;2023-05-23T05:26:05;100196.13;;;20.69;100.00
10881;BME280;5493;48.884;8.338;2023-05-23T05:28:33;100195.09;;;20.88;100.00
10881;BME280;5493;48.884;8.338;2023-05-23T05:31:01;100201.44;;;20.84;100.00
10881;BME280;5493;48.884;8.338;2023-05-23T05:33:29;100207.13;;;20.63;100.00
10881;BME280;5493;48.884;8.338;2023-05-23T05:36:00;100198.31;;;20.95;100.00
10881;BME280;5493;48.884;8.338;2023-05-23T05:38:27;100202.84;;;20.81;100.00
10881;BME280;5493;48.884;8.338;2023-05-23T05:40:53;100198.44;;;20.85;100.00
10881;BME280;5493;48.884;8.338;2023-05-23T05:43:20;100196.38;;;20.43;100.00
10881;BME280;5493;48.884;8.338;2023-05-23T05:45:48;100205.44;;;20.68;100.00
10881;BME280;5493;48.884;8.338;2023-05-23T05:48:14;100210.78;;;20.83;100.00
10881;BME280;5493;48.884;8.338;2023-05-23T05:50:41;100216.03;;;20.79;100.00
10881;BME280;5493;48.884;8.338;2023-05-23T05:53:09;100221.56;;;20.40;100.00
10881;BME280;5493;48.884;8.338;2023-05-23T05:55:36;100211.50;;;20.31;100.00
10881;BME280;5493;48.884;8.338;2023-05-23T05:58:03;100217.13;;;20.05;100.00
10881;BME280;5493;48.884;8.338;2023-05-23T06:00:30;100229.97;;;20.10;100.00
10881;BME280;5493;48.884;8.338;2023-05-23T06:02:58;100226.16;;;20.11;100.00
10881;BME280;5493;48.884;8.338;2023-05-23T06:05:24;100222.53;;;20.15;100.00
10881;BME280;5493;48.884;8.338;2023-05-23T06:07:51;100222.25;;;20.17;100.00
10881;BME280;5493;48.884;8.338;2023-05-23T06:10:17;100220.69;;;20.06;100.00
10881;BME280;5493;48.884;8.338;2023-05-23T06:12:44;100223.34;;;20.16;100.00
10881;BME280;5493;48.884;8.338;2023-05-23T06:15:10;100225.00;;;20.17;100.00
10881;BME280;5493;48.884;8.338;2023-05-23T06:17:38;100234.66;;;20.04;100.00
10881;BME280;5493;48.884;8.338;2023-05-23T06:20:07;100234.84;;;20.18;100.00
10881;BME280;5493;48.884;8.338;2023-05-23T06:22:33;100238.78;;;20.02;100.00
10881;BME280;5493;48.884;8.338;2023-05-23T06:25:00;100241.97;;;19.65;100.00
10881;BME280;5493;48.884;8.338;2023-05-23T06:27:26;100248.53;;;19.69;100.00
10881;BME280;5493;48.884;8.338;2023-05-23T06:29:53;100253.34;;;19.92;100.00
10881;BME280;5493;48.884;8.338;2023-05-23T06:32:19;100258.56;;;19.89;100.00
10881;BME280;5493;48.884;8.338;2023-05-23T06:34:46;100260.84;;;20.15;100.00
10881;BME280;5493;48.884;8.338;2023-05-23T06:37:14;100259.72;;;19.78;100.00
10881;BME280;5493;48.884;8.338;2023-05-23T06:39:41;100265.13;;;19.88;100.00
10881;BME280;5493;48.884;8.338;2023-05-23T06:42:07;100264.56;;;19.91;100.00
10881;BME280;5493;48.884;8.338;2023-05-23T06:44:34;100259.97;;;19.81;100.00
10881;BME280;5493;48.884;8.338;2023-05-23T06:47:00;100274.53;;;19.67;100.00
10881;BME280;5493;48.884;8.338;2023-05-23T06:49:27;100282.63;;;19.92;100.00
10881;BME280;5493;48.884;8.338;2023-05-23T06:51:53;100288.97;;;19.82;100.00
10881;BME280;5493;48.884;8.338;2023-05-23T06:54:21;100295.50;;;19.86;100.00
10881;BME280;5493;48.884;8.338;2023-05-23T06:56:48;100296.25;;;20.02;100.00
10881;BME280;5493;48.884;8.338;2023-05-23T06:59:14;100299.38;;;19.75;100.00
10881;BME280;5493;48.884;8.338;2023-05-23T07:01:41;100303.13;;;19.99;100.00
10881;BME280;5493;48.884;8.338;2023-05-23T07:04:07;100309.38;;;20.05;100.00
10881;BME280;5493;48.884;8.338;2023-05-23T07:06:34;100314.97;;;19.80;100.00
10881;BME280;5493;48.884;8.338;2023-05-23T07:09:01;100310.56;;;19.84;100.00
10881;BME280;5493;48.884;8.338;2023-05-23T07:11:29;100309.94;;;20.07;100.00
10881;BME280;5493;48.884;8.338;2023-05-23T07:13:56;100309.97;;;19.97;100.00
10881;BME280;5493;48.884;8.338;2023-05-23T07:16:22;100312.47;;;19.83;100.00
10881;BME280;5493;48.884;8.338;2023-05-23T07:18:49;100320.84;;;20.12;100.00
10881;BME280;5493;48.884;8.338;2023-05-23T07:21:15;100319.22;;;20.60;100.00
10881;BME280;5493;48.884;8.338;2023-05-23T07:23:42;100311.75;;;21.04;100.00
10881;BME280;5493;48.884;8.338;2023-05-23T07:26:08;100311.66;;;21.43;100.00
10881;BME280;5493;48.884;8.338;2023-05-23T07:28:37;100319.09;;;21.67;100.00
10881;BME280;5493;48.884;8.338;2023-05-23T07:31:03;100325.75;;;22.27;100.00
10881;BME280;5493;48.884;8.338;2023-05-23T07:33:32;100316.00;;;21.73;100.00
10881;BME280;5493;48.884;8.338;2023-05-23T07:35:58;100326.56;;;21.61;100.00
10881;BME280;5493;48.884;8.338;2023-05-23T07:38:25;100331.44;;;21.40;100.00
10881;BME280;5493;48.884;8.338;2023-05-23T07:40:52;100333.66;;;21.38;100.00
10881;BME280;5493;48.884;8.338;2023-05-23T07:43:18;100324.97;;;21.55;100.00
10881;BME280;5493;48.884;8.338;2023-05-23T07:45:46;100332.63;;;21.00;100.00
10881;BME280;5493;48.884;8.338;2023-05-23T07:48:13;100330.66;;;20.67;100.00
10881;BME280;5493;48.884;8.338;2023-05-23T07:50:39;100331.75;;;20.71;100.00
10881;BME280;5493;48.884;8.338;2023-05-23T07:53:06;100326.72;;;20.44;100.00
10881;BME280;5493;48.884;8.338;2023-05-23T07:55:32;100330.69;;;20.62;100.00
10881;BME280;5493;48.884;8.338;2023-05-23T07:57:59;100335.53;;;21.14;100.00
10881;BME280;5493;48.884;8.338;2023-05-23T08:00:26;100330.69;;;21.01;100.00
10881;BME280;5493;48.884;8.338;2023-05-23T08:02:54;100329.78;;;20.77;100.00
10881;BME280;5493;48.884;8.338;2023-05-23T08:05:21;100335.31;;;20.72;100.00
10881;BME280;5493;48.884;8.338;2023-05-23T08:07:48;100333.22;;;21.26;100.00
10881;BME280;5493;48.884;8.338;2023-05-23T08:10:14;100343.59;;;20.95;100.00
10881;BME280;5493;48.884;8.338;2023-05-23T08:12:41;100334.44;;;21.44;100.00
10881;BME280;5493;48.884;8.338;2023-05-23T08:15:08;100332.13;;;20.93;100.00
10881;BME280;5493;48.884;8.338;2023-05-23T08:17:35;100336.22;;;21.30;100.00
10881;BME280;5493;48.884;8.338;2023-05-23T08:20:04;100343.25;;;21.12;100.00
10881;BME280;5493;48.884;8.338;2023-05-23T08:22:31;100341.75;;;21.25;100.00
10881;BME280;5493;48.884;8.338;2023-05-23T08:24:58;100342.66;;;21.68;100.00
10881;BME280;5493;48.884;8.338;2023-05-23T08:27:24;100351.78;;;21.63;100.00
10881;BME280;5493;48.884;8.338;2023-05-23T08:29:51;100352.19;;;21.51;100.00
10881;BME280;5493;48.884;8.338;2023-05-23T08:32:17;100359.00;;;21.54;100.00
10881;BME280;5493;48.884;8.338;2023-05-23T08:34:44;100358.75;;;21.27;100.00
10881;BME280;5493;48.884;8.338;2023-05-23T08:37:12;100354.53;;;21.34;100.00
10881;BME280;5493;48.884;8.338;2023-05-23T08:39:38;100353.91;;;20.75;100.00
10881;BME280;5493;48.884;8.338;2023-05-23T08:42:06;100358.06;;;20.67;100.00
10881;BME280;5493;48.884;8.338;2023-05-23T08:44:32;100362.63;;;20.82;100.00
10881;BME280;5493;48.884;8.338;2023-05-23T08:47:02;100364.34;;;21.06;100.00
10881;BME280;5493;48.884;8.338;2023-05-23T08:49:30;100359.97;;;21.10;100.00
10881;BME280;5493;48.884;8.338;2023-05-23T08:52:00;100372.22;;;21.23;100.00
10881;BME280;5493;48.884;8.338;2023-05-23T08:54:29;100372.69;;;20.91;100.00
10881;BME280;5493;48.884;8.338;2023-05-23T08:56:57;100371.56;;;21.31;100.00
10881;BME280;5493;48.884;8.338;2023-05-23T08:59:25;100376.81;;;20.94;100.00
10881;BME280;5493;48.884;8.338;2023-05-23T09:01:54;100381.91;;;21.05;100.00
10881;BME280;5493;48.884;8.338;2023-05-23T09:04:21;100386.38;;;20.96;100.00
10881;BME280;5493;48.884;8.338;2023-05-23T09:06:47;100384.63;;;21.16;100.00
10881;BME280;5493;48.884;8.338;2023-05-23T09:09:15;100384.69;;;20.61;100.00
10881;BME280;5493;48.884;8.338;2023-05-23T09:11:43;100382.81;;;20.57;100.00
10881;BME280;5493;48.884;8.338;2023-05-23T09:14:10;100388.09;;;21.26;100.00
10881;BME280;5493;48.884;8.338;2023-05-23T09:16:38;100393.94;;;21.15;100.00
10881;BME280;5493;48.884;8.338;2023-05-23T09:19:11;100389.19;;;20.86;100.00
10881;BME280;5493;48.884;8.338;2023-05-23T09:21:41;100391.41;;;21.23;100.00
10881;BME280;5493;48.884;8.338;2023-05-23T09:24:08;100387.88;;;21.46;100.00
10881;BME280;5493;48.884;8.338;2023-05-23T09:26:35;100385.72;;;21.43;100.00
10881;BME280;5493;48.884;8.338;2023-05-23T09:29:04;100390.28;;;21.24;100.00
10881;BME280;5493;48.884;8.338;2023-05-23T09:31:31;100388.47;;;21.43;100.00
10881;BME280;5493;48.884;8.338;2023-05-23T09:33:57;100375.09;;;21.89;100.00
10881;BME280;5493;48.884;8.338;2023-05-23T09:36:26;100378.09;;;21.93;100.00
10881;BME280;5493;48.884;8.338;2023-05-23T09:38:53;100378.50;;;22.47;100.00
10881;BME280;5493;48.884;8.338;2023-05-23T09:41:20;100374.59;;;22.72;100.00
10881;BME280;5493;48.884;8.338;2023-05-23T09:43:50;100374.72;;;23.18;100.00
10881;BME280;5493;48.884;8.338;2023-05-23T09:46:19;100374.59;;;22.91;100.00
10881;BME280;5493;48.884;8.338;2023-05-23T09:48:46;100382.97;;;22.62;100.00
10881;BME280;5493;48.884;8.338;2023-05-23T09:51:13;100380.75;;;22.64;100.00
10881;BME280;5493;48.884;8.338;2023-05-23T09:53:39;100379.94;;;22.21;100.00
10881;BME280;5493;48.884;8.338;2023-05-23T09:56:06;100386.94;;;22.32;100.00
10881;BME280;5493;48.884;8.338;2023-05-23T10:01:03;100395.09;;;22.19;100.00
10881;BME280;5493;48.884;8.338;2023-05-23T10:03:38;100398.88;;;22.23;100.00
10881;BME280;5493;48.884;8.338;2023-05-23T10:06:07;100395.34;;;21.98;100.00
10881;BME280;5493;48.884;8.338;2023-05-23T10:08:38;100395.75;;;21.82;100.00
10881;BME280;5493;48.884;8.338;2023-05-23T10:14:13;100390.84;;;21.79;100.00
10881;BME280;5493;48.884;8.338;2023-05-23T10:16:49;100392.47;;;22.08;100.00
10881;BME280;5493;48.884;8.338;2023-05-23T10:19:24;100391.69;;;22.27;100.00
10881;BME280;5493;48.884;8.338;2023-05-23T10:21:56;100396.63;;;22.06;100.00
10881;BME280;5493;48.884;8.338;2023-05-23T10:24:24;100399.53;;;22.15;100.00
10881;BME280;5493;48.884;8.338;2023-05-23T10:26:52;100407.50;;;22.16;100.00
10881;BME280;5493;48.884;8.338;2023-05-23T10:29:19;100402.84;;;22.54;100.00
10881;BME280;5493;48.884;8.338;2023-05-23T10:31:46;100398.91;;;21.99;100.00
10881;BME280;5493;48.884;8.338;2023-05-23T10:34:21;100395.41;;;22.36;100.00
10881;BME280;5493;48.884;8.338;2023-05-23T10:36:56;100397.72;;;22.71;100.00
10881;BME280;5493;48.884;8.338;2023-05-23T10:39:35;100393.84;;;22.30;100.00
10881;BME280;5493;48.884;8.338;2023-05-23T10:42:10;100392.34;;;22.19;100.00
10881;BME280;5493;48.884;8.338;2023-05-23T10:44:37;100389.84;;;23.16;100.00
10881;BME280;5493;48.884;8.338;2023-05-23T10:47:04;100395.28;;;22.65;100.00
10881;BME280;5493;48.884;8.338;2023-05-23T10:49:37;100386.19;;;23.39;100.00
10881;BME280;5493;48.884;8.338;2023-05-23T10:52:05;100393.72;;;23.66;100.00
10881;BME280;5493;48.884;8.338;2023-05-23T10:54:35;100398.03;;;23.21;100.00
10881;BME280;5493;48.884;8.338;2023-05-23T10:57:03;100390.28;;;23.23;100.00
10881;BME280;5493;48.884;8.338;2023-05-23T10:59:30;100392.63;;;23.48;100.00
10881;BME280;5493;48.884;8.338;2023-05-23T11:01:57;100402.75;;;23.01;100.00
10881;BME280;5493;48.884;8.338;2023-05-23T11:04:25;100380.44;;;23.68;100.00
10881;BME280;5493;48.884;8.338;2023-05-23T11:06:53;100381.16;;;23.27;100.00
10881;BME280;5493;48.884;8.338;2023-05-23T11:09:21;100386.09;;;24.03;100.00
10881;BME280;5493;48.884;8.338;2023-05-23T11:11:58;100390.28;;;23.87;100.00
10881;BME280;5493;48.884;8.338;2023-05-23T11:14:51;100382.72;;;23.79;100.00
10881;BME280;5493;48.884;8.338;2023-05-23T11:17:29;100385.47;;;24.07;100.00
10881;BME280;5493;48.884;8.338;2023-05-23T11:19:58;100387.72;;;23.91;100.00
10881;BME280;5493;48.884;8.338;2023-05-23T11:22:27;100386.03;;;23.49;100.00
10881;BME280;5493;48.884;8.338;2023-05-23T11:24:56;100383.47;;;23.52;100.00
10881;BME280;5493;48.884;8.338;2023-05-23T11:27:27;100381.59;;;23.94;100.00
10881;BME280;5493;48.884;8.338;2023-05-23T11:29:56;100384.16;;;24.18;100.00
10881;BME280;5493;48.884;8.338;2023-05-23T11:32:23;100379.13;;;23.65;100.00
10881;BME280;5493;48.884;8.338;2023-05-23T11:34:50;100385.47;;;23.79;100.00
10881;BME280;5493;48.884;8.338;2023-05-23T11:37:17;100376.19;;;24.30;100.00
10881;BME280;5493;48.884;8.338;2023-05-23T11:39:44;100374.31;;;23.43;100.00
10881;BME280;5493;48.884;8.338;2023-05-23T11:42:11;100371.66;;;23.52;100.00
10881;BME280;5493;48.884;8.338;2023-05-23T11:44:38;100367.31;;;23.92;100.00
10881;BME280;5493;48.884;8.338;2023-05-23T11:47:05;100371.97;;;23.64;100.00
10881;BME280;5493;48.884;8.338;2023-05-23T11:49:35;100378.72;;;23.26;100.00
10881;BME280;5493;48.884;8.338;2023-05-23T11:52:02;100374.88;;;23.40;100.00
10881;BME280;5493;48.884;8.338;2023-05-23T11:54:31;100377.00;;;23.76;100.00
10881;BME280;5493;48.884;8.338;2023-05-23T11:56:57;100372.91;;;24.00;100.00
10881;BME280;5493;48.884;8.338;2023-05-23T11:59:25;100370.16;;;24.28;100.00
10881;BME280;5493;48.884;8.338;2023-05-23T12:01:52;100377.34;;;23.42;100.00
10881;BME280;5493;48.884;8.338;2023-05-23T12:04:19;100370.47;;;23.58;100.00
10881;BME280;5493;48.884;8.338;2023-05-23T12:06:47;100358.25;;;24.05;100.00
10881;BME280;5493;48.884;8.338;2023-05-23T12:09:14;100370.56;;;24.48;100.00
10881;BME280;5493;48.884;8.338;2023-05-23T12:11:41;100353.84;;;24.67;100.00
10881;BME280;5493;48.884;8.338;2023-05-23T12:14:11;100358.88;;;24.65;100.00
10881;BME280;5493;48.884;8.338;2023-05-23T12:16:42;100359.91;;;24.56;100.00
10881;BME280;5493;48.884;8.338;2023-05-23T12:19:09;100365.84;;;24.49;100.00
10881;BME280;5493;48.884;8.338;2023-05-23T12:21:40;100352.81;;;24.27;100.00
10881;BME280;5493;48.884;8.338;2023-05-23T12:24:17;100359.56;;;23.94;100.00
10881;BME280;5493;48.884;8.338;2023-05-23T12:26:48;100363.31;;;23.25;100.00
10881;BME280;5493;48.884;8.338;2023-05-23T12:29:17;100367.81;;;23.02;100.00
10881;BME280;5493;48.884;8.338;2023-05-23T12:31:47;100366.59;;;23.08;100.00
10881;BME280;5493;48.884;8.338;2023-05-23T12:34:13;100364.50;;;22.68;100.00
10881;BME280;5493;48.884;8.338;2023-05-23T12:36:40;100364.09;;;22.37;100.00
10881;BME280;5493;48.884;8.338;2023-05-23T12:39:07;100368.50;;;22.56;100.00
10881;BME280;5493;48.884;8.338;2023-05-23T12:41:34;100364.97;;;22.51;100.00
10881;BME280;5493;48.884;8.338;2023-05-23T12:44:01;100372.31;;;22.37;100.00
10881;BME280;5493;48.884;8.338;2023-05-23T12:46:28;100367.06;;;22.40;100.00
10881;BME280;5493;48.884;8.338;2023-05-23T12:48:56;100371.44;;;22.41;100.00
10881;BME280;5493;48.884;8.338;2023-05-23T12:51:22;100375.22;;;22.27;100.00
10881;BME280;5493;48.884;8.338;2023-05-23T12:53:49;100372.56;;;22.40;100.00
10881;BME280;5493;48.884;8.338;2023-05-23T12:56:16;100366.69;;;22.28;100.00
10881;BME280;5493;48.884;8.338;2023-05-23T12:58:42;100363.81;;;22.38;100.00